Vega Desgagnes — VOCQ — position and weather

sailwx.info

Track history (hours):
 
Tides and Currents Weather Stations Pressure Air Temp Water Temp Dewpoint Dewpoint Depression Visibility Wind Speed Wind Dir Waves Ship Positions

Vega Desgagnes

Last reported at 2014-Sep-29 21:34 UTC. Time now 2014-Oct-01 18:21 UTC.
Position N 43°58' W 076°35'.

Length 141 m; draft 7.2 m.

Type: Tanker. MMSI: 316003770.

Date/timePositionNaut miles runAvg speedWind from/ knotsBaromVisibWave heightAir tempDewpointWater temp
2014-Sep-29 21:34N 43°58' W 076°35'1312.8
2014-Sep-29 20:34N 44°07' W 076°22'1211.5
2014-Sep-29 19:34N 44°14' W 076°09'75 5.7
2014-Sep-29 06:29N 44°59' W 074°46'0 0.0
2014-Sep-29 05:32N 44°59' W 074°46'6 2.8
2014-Sep-29 03:27N 45°01' W 074°38'7 7.7
2014-Sep-29 02:33N 45°05' W 074°30'8 8.4
2014-Sep-29 01:34N 45°10' W 074°21'9 9.4
2014-Sep-29 00:33N 45°14' W 074°08'7 6.8
2014-Sep-28 23:32N 45°15' W 073°59'4 4.3
2014-Sep-28 22:33N 45°18' W 073°55'1 1.2
2014-Sep-28 21:34N 45°19' W 073°55'7 7.2
2014-Sep-28 20:34N 45°24' W 073°47'7 7.4
2014-Sep-28 19:33N 45°24' W 073°36'2 2.3
2014-Sep-28 18:33N 45°24' W 073°33'4 4.1
2014-Sep-28 17:33N 45°28' W 073°30'2 2.4
2014-Sep-28 16:33N 45°30' W 073°31'2 2.5
2014-Sep-28 15:34N 45°33' W 073°32'3 2.7
2014-Sep-28 14:33N 45°35' W 073°30'1 1.3
2014-Sep-28 13:29N 45°37' W 073°30'0 0.0
2014-Sep-28 12:32N 45°37' W 073°30'0 0.0
2014-Sep-28 11:29N 45°37' W 073°30'0 0.0
2014-Sep-28 10:29N 45°37' W 073°30'0 0.0
2014-Sep-28 09:23N 45°37' W 073°30'0 0.0
2014-Sep-28 08:29N 45°37' W 073°30'0 0.0
2014-Sep-28 07:32N 45°37' W 073°30'0 0.0
2014-Sep-28 06:29N 45°37' W 073°30'0 0.0
2014-Sep-28 05:32N 45°37' W 073°30'0 0.0
2014-Sep-28 04:29N 45°37' W 073°30'0 0.0
2014-Sep-28 03:11N 45°37' W 073°30'0 0.0
2014-Sep-28 02:32N 45°37' W 073°30'0 0.0
2014-Sep-28 01:32N 45°37' W 073°30'0 0.0
2014-Sep-28 00:29N 45°37' W 073°30'0 0.0
2014-Sep-27 23:29N 45°37' W 073°30'0 0.0
2014-Sep-27 22:29N 45°37' W 073°30'0 0.0
2014-Sep-27 21:29N 45°37' W 073°30'0 0.0
2014-Sep-27 20:11N 45°37' W 073°30'0 0.0
2014-Sep-27 19:17N 45°37' W 073°30'0 0.0
2014-Sep-27 14:23N 45°37' W 073°30'1 1.2
2014-Sep-27 13:32N 45°38' W 073°29'1 0.5
2014-Sep-27 12:32N 45°38' W 073°29'0 0.0
2014-Sep-27 11:32N 45°38' W 073°29'0 0.0
2014-Sep-27 10:32N 45°38' W 073°29'0 0.0
2014-Sep-27 09:29N 45°38' W 073°29'0 0.0
2014-Sep-27 08:32N 45°38' W 073°29'0 0.0
2014-Sep-27 07:32N 45°38' W 073°29'0 0.4
2014-Sep-27 06:32N 45°38' W 073°30'0 0.0
2014-Sep-27 05:29N 45°38' W 073°29'0 0.0
2014-Sep-27 04:32N 45°38' W 073°30'0 0.0
2014-Sep-27 03:29N 45°38' W 073°29'0 0.0
2014-Sep-27 02:29N 45°38' W 073°30'0 0.0
2014-Sep-27 01:32N 45°38' W 073°30'0 0.0
2014-Sep-27 00:32N 45°38' W 073°30'0 0.0
2014-Sep-26 23:32N 45°38' W 073°30'1 1.0
2014-Sep-26 22:33N 45°37' W 073°30'7 7.1
2014-Sep-26 21:33N 45°30' W 073°31'2 1.8
2014-Sep-26 20:33N 45°28' W 073°30'5 4.5
2014-Sep-26 19:33N 45°24' W 073°34'4 3.8
2014-Sep-26 18:34N 45°25' W 073°39'10 9.8
2014-Sep-26 17:33N 45°21' W 073°52'3 3.5
2014-Sep-26 16:33N 45°18' W 073°56'3 2.2
2014-Sep-26 15:23N 45°16' W 073°57'4 4.9
2014-Sep-26 14:33N 45°13' W 074°02'8 7.7
2014-Sep-26 13:33N 45°14' W 074°13'11 8.7
2014-Sep-26 12:18N 45°08' W 074°26'85 7.7
2014-Sep-26 01:15N 44°17' W 076°01'810.8
2014-Sep-26 00:32N 44°13' W 076°11'1212.5
2014-Sep-25 23:33N 44°06' W 076°24'  
2014-Sep-23 14:16N 44°00' W 076°30'811.7
2014-Sep-23 13:33N 44°07' W 076°23'1211.3
2014-Sep-23 12:31N 44°13' W 076°10'91 6.5
2014-Sep-22 22:33N 45°07' W 074°27'8 7.7
2014-Sep-22 21:33N 45°12' W 074°18'8 7.7
2014-Sep-22 20:28N 45°14' W 074°07'7 7.8
2014-Sep-22 19:33N 45°16' W 073°57'3 3.1
2014-Sep-22 18:33N 45°19' W 073°55'1 1.2
2014-Sep-22 17:34N 45°20' W 073°55'4 4.0
2014-Sep-22 16:33N 45°22' W 073°50'7 6.7
2014-Sep-22 15:34N 45°25' W 073°41'5 5.1
2014-Sep-22 14:33N 45°24' W 073°34'1 1.4
2014-Sep-22 13:33N 45°25' W 073°32'3 3.0
2014-Sep-22 12:33N 45°27' W 073°30'3 2.6
2014-Sep-22 11:33N 45°30' W 073°31'0 0.2
2014-Sep-22 08:29N 45°30' W 073°31'2 2.2
2014-Sep-22 07:33N 45°32' W 073°32'1 0.8
2014-Sep-22 06:32N 45°33' W 073°31'4 0.2
2014-Sep-21 09:30N 45°37' W 073°30'0 0.0
2014-Sep-21 04:12N 45°37' W 073°30'0 0.0
2014-Sep-21 03:30N 45°37' W 073°30'0 0.0
2014-Sep-21 02:24N 45°37' W 073°30'0 0.0
2014-Sep-21 01:27N 45°37' W 073°30'0 0.0
2014-Sep-21 00:33N 45°37' W 073°30'0 0.0
2014-Sep-20 23:33N 45°37' W 073°30'0 0.0
2014-Sep-20 20:33N 45°37' W 073°30'0 0.0
2014-Sep-20 12:33N 45°37' W 073°30'0 0.0
2014-Sep-20 11:33N 45°37' W 073°30'0 0.0
2014-Sep-20 10:33N 45°37' W 073°30'0 0.0
2014-Sep-20 09:33N 45°37' W 073°30'1 0.9
2014-Sep-20 08:33N 45°36' W 073°30'6 6.3
2014-Sep-20 07:33N 45°30' W 073°31'2 1.9
2014-Sep-20 06:33N 45°28' W 073°30'3 3.1
2014-Sep-20 05:34N 45°25' W 073°31'2 2.2
2014-Sep-20 04:33N 45°24' W 073°34'3 2.9
2014-Sep-20 03:33N 45°24' W 073°38'6 6.0
2014-Sep-20 02:33N 45°24' W 073°47'8 7.9
2014-Sep-20 01:33N 45°19' W 073°55'1 1.4
2014-Sep-20 00:33N 45°18' W 073°56'3 3.3
2014-Sep-19 23:33N 45°15' W 073°59'8 7.7
2014-Sep-19 22:33N 45°14' W 074°09'  
Track history (hours):
 
Tides and Currents Weather Stations Pressure Air Temp Water Temp Dewpoint Dewpoint Depression Visibility Wind Speed Wind Dir Waves Ship Positions

Vega Desgagnes

Last reported at 2014-Sep-29 21:34 UTC. Time now 2014-Oct-01 18:21 UTC.
Position N 43°58' W 076°35'.

Length 141 m; draft 7.2 m.

Type: Tanker. MMSI: 316003770.

Date/timePositionNaut miles runAvg speedWind from/ knotsBaromVisibWave heightAir tempDewpointWater temp
2014-Sep-29 21:34N 43°58' W 076°35'1312.8
2014-Sep-29 20:34N 44°07' W 076°22'1211.5
2014-Sep-29 19:34N 44°14' W 076°09'75 5.7
2014-Sep-29 06:29N 44°59' W 074°46'0 0.0
2014-Sep-29 05:32N 44°59' W 074°46'6 2.8
2014-Sep-29 03:27N 45°01' W 074°38'7 7.7
2014-Sep-29 02:33N 45°05' W 074°30'8 8.4
2014-Sep-29 01:34N 45°10' W 074°21'9 9.4
2014-Sep-29 00:33N 45°14' W 074°08'7 6.8
2014-Sep-28 23:32N 45°15' W 073°59'4 4.3
2014-Sep-28 22:33N 45°18' W 073°55'1 1.2
2014-Sep-28 21:34N 45°19' W 073°55'7 7.2
2014-Sep-28 20:34N 45°24' W 073°47'7 7.4
2014-Sep-28 19:33N 45°24' W 073°36'2 2.3
2014-Sep-28 18:33N 45°24' W 073°33'4 4.1
2014-Sep-28 17:33N 45°28' W 073°30'2 2.4
2014-Sep-28 16:33N 45°30' W 073°31'2 2.5
2014-Sep-28 15:34N 45°33' W 073°32'3 2.7
2014-Sep-28 14:33N 45°35' W 073°30'1 1.3
2014-Sep-28 13:29N 45°37' W 073°30'0 0.0
2014-Sep-28 12:32N 45°37' W 073°30'0 0.0
2014-Sep-28 11:29N 45°37' W 073°30'0 0.0
2014-Sep-28 10:29N 45°37' W 073°30'0 0.0
2014-Sep-28 09:23N 45°37' W 073°30'0 0.0
2014-Sep-28 08:29N 45°37' W 073°30'0 0.0
2014-Sep-28 07:32N 45°37' W 073°30'0 0.0
2014-Sep-28 06:29N 45°37' W 073°30'0 0.0
2014-Sep-28 05:32N 45°37' W 073°30'0 0.0
2014-Sep-28 04:29N 45°37' W 073°30'0 0.0
2014-Sep-28 03:11N 45°37' W 073°30'0 0.0
2014-Sep-28 02:32N 45°37' W 073°30'0 0.0
2014-Sep-28 01:32N 45°37' W 073°30'0 0.0
2014-Sep-28 00:29N 45°37' W 073°30'0 0.0
2014-Sep-27 23:29N 45°37' W 073°30'0 0.0
2014-Sep-27 22:29N 45°37' W 073°30'0 0.0
2014-Sep-27 21:29N 45°37' W 073°30'0 0.0
2014-Sep-27 20:11N 45°37' W 073°30'0 0.0
2014-Sep-27 19:17N 45°37' W 073°30'0 0.0
2014-Sep-27 14:23N 45°37' W 073°30'1 1.2
2014-Sep-27 13:32N 45°38' W 073°29'1 0.5
2014-Sep-27 12:32N 45°38' W 073°29'0 0.0
2014-Sep-27 11:32N 45°38' W 073°29'0 0.0
2014-Sep-27 10:32N 45°38' W 073°29'0 0.0
2014-Sep-27 09:29N 45°38' W 073°29'0 0.0
2014-Sep-27 08:32N 45°38' W 073°29'0 0.0
2014-Sep-27 07:32N 45°38' W 073°29'0 0.4
2014-Sep-27 06:32N 45°38' W 073°30'0 0.0
2014-Sep-27 05:29N 45°38' W 073°29'0 0.0
2014-Sep-27 04:32N 45°38' W 073°30'0 0.0
2014-Sep-27 03:29N 45°38' W 073°29'0 0.0
2014-Sep-27 02:29N 45°38' W 073°30'0 0.0
2014-Sep-27 01:32N 45°38' W 073°30'0 0.0
2014-Sep-27 00:32N 45°38' W 073°30'0 0.0
2014-Sep-26 23:32N 45°38' W 073°30'1 1.0
2014-Sep-26 22:33N 45°37' W 073°30'7 7.1
2014-Sep-26 21:33N 45°30' W 073°31'2 1.8
2014-Sep-26 20:33N 45°28' W 073°30'5 4.5
2014-Sep-26 19:33N 45°24' W 073°34'4 3.8
2014-Sep-26 18:34N 45°25' W 073°39'10 9.8
2014-Sep-26 17:33N 45°21' W 073°52'3 3.5
2014-Sep-26 16:33N 45°18' W 073°56'3 2.2
2014-Sep-26 15:23N 45°16' W 073°57'4 4.9
2014-Sep-26 14:33N 45°13' W 074°02'8 7.7
2014-Sep-26 13:33N 45°14' W 074°13'11 8.7
2014-Sep-26 12:18N 45°08' W 074°26'85 7.7
2014-Sep-26 01:15N 44°17' W 076°01'810.8
2014-Sep-26 00:32N 44°13' W 076°11'1212.5
2014-Sep-25 23:33N 44°06' W 076°24'  
2014-Sep-23 14:16N 44°00' W 076°30'811.7
2014-Sep-23 13:33N 44°07' W 076°23'1211.3
2014-Sep-23 12:31N 44°13' W 076°10'91 6.5
2014-Sep-22 22:33N 45°07' W 074°27'8 7.7
2014-Sep-22 21:33N 45°12' W 074°18'8 7.7
2014-Sep-22 20:28N 45°14' W 074°07'7 7.8
2014-Sep-22 19:33N 45°16' W 073°57'3 3.1
2014-Sep-22 18:33N 45°19' W 073°55'1 1.2
2014-Sep-22 17:34N 45°20' W 073°55'4 4.0
2014-Sep-22 16:33N 45°22' W 073°50'7 6.7
2014-Sep-22 15:34N 45°25' W 073°41'5 5.1
2014-Sep-22 14:33N 45°24' W 073°34'1 1.4
2014-Sep-22 13:33N 45°25' W 073°32'3 3.0
2014-Sep-22 12:33N 45°27' W 073°30'3 2.6
2014-Sep-22 11:33N 45°30' W 073°31'0 0.2
2014-Sep-22 08:29N 45°30' W 073°31'2 2.2
2014-Sep-22 07:33N 45°32' W 073°32'1 0.8
2014-Sep-22 06:32N 45°33' W 073°31'4 0.2
2014-Sep-21 09:30N 45°37' W 073°30'0 0.0
2014-Sep-21 04:12N 45°37' W 073°30'0 0.0
2014-Sep-21 03:30N 45°37' W 073°30'0 0.0
2014-Sep-21 02:24N 45°37' W 073°30'0 0.0
2014-Sep-21 01:27N 45°37' W 073°30'0 0.0
2014-Sep-21 00:33N 45°37' W 073°30'0 0.0
2014-Sep-20 23:33N 45°37' W 073°30'0 0.0
2014-Sep-20 20:33N 45°37' W 073°30'0 0.0
2014-Sep-20 12:33N 45°37' W 073°30'0 0.0
2014-Sep-20 11:33N 45°37' W 073°30'0 0.0
2014-Sep-20 10:33N 45°37' W 073°30'0 0.0
2014-Sep-20 09:33N 45°37' W 073°30'1 0.9
2014-Sep-20 08:33N 45°36' W 073°30'6 6.3
2014-Sep-20 07:33N 45°30' W 073°31'2 1.9
2014-Sep-20 06:33N 45°28' W 073°30'3 3.1
2014-Sep-20 05:34N 45°25' W 073°31'2 2.2
2014-Sep-20 04:33N 45°24' W 073°34'3 2.9
2014-Sep-20 03:33N 45°24' W 073°38'6 6.0
2014-Sep-20 02:33N 45°24' W 073°47'8 7.9
2014-Sep-20 01:33N 45°19' W 073°55'1 1.4
2014-Sep-20 00:33N 45°18' W 073°56'3 3.3
2014-Sep-19 23:33N 45°15' W 073°59'8 7.7
2014-Sep-19 22:33N 45°14' W 074°09'  

Dump ship's entire track history